Time;durP1;ratioP1;P1;durP2;ratioP2;P2;SDS_P1;SDS_P2;PMS_P1;PMS_P2;Temp;Humidity;BMP_temperature;BMP_pressure;BME280_temperature;BME280_humidity;BME280_pressure;Samples;Min_cycle;Max_cycle;Signal;HPM_P1;HPM_P2
2023/08/04 00:00:10;;;;;;;0.60;0.60;;;21.40;76.80;;;;;;5062100;28;43410;-70
2023/08/04 00:02:40;;;;;;;0.80;0.80;;;21.30;77.40;;;;;;5068452;28;43425;-71
2023/08/04 00:05:08;;;;;;;0.73;0.73;;;21.30;77.40;;;;;;5069364;28;43832;-71
2023/08/04 00:07:42;;;;;;;0.60;0.60;;;21.30;77.40;;;;;;5062725;28;44725;-70
2023/08/04 00:10:11;;;;;;;0.70;0.70;;;21.20;77.20;;;;;;5069742;28;43987;-71
2023/08/04 00:12:39;;;;;;;0.67;0.67;;;21.20;77.30;;;;;;5070044;28;43335;-70
2023/08/04 00:15:07;;;;;;;0.60;0.60;;;21.20;77.90;;;;;;5068295;28;43781;-71
2023/08/04 00:17:38;;;;;;;0.90;0.90;;;21.30;77.70;;;;;;5069478;28;43381;-71
2023/08/04 00:20:10;;;;;;;0.63;0.63;;;21.40;77.20;;;;;;5068916;28;43373;-70
2023/08/04 00:22:38;;;;;;;0.67;0.67;;;21.50;76.70;;;;;;5069723;28;43498;-70
2023/08/04 00:25:08;;;;;;;0.67;0.67;;;21.60;76.30;;;;;;5069271;28;43599;-70
2023/08/04 00:27:36;;;;;;;0.60;0.60;;;21.60;76.20;;;;;;5069183;28;44035;-70
2023/08/04 00:30:05;;;;;;;0.60;0.60;;;21.50;76.20;;;;;;5067279;28;43417;-70
2023/08/04 00:32:33;;;;;;;0.63;0.63;;;21.50;76.40;;;;;;5067984;28;43427;-70
2023/08/04 00:35:03;;;;;;;0.60;0.60;;;21.40;77.00;;;;;;5066501;28;46067;-70
2023/08/04 00:37:31;;;;;;;0.70;0.70;;;21.40;77.10;;;;;;5066655;28;43445;-70
2023/08/04 00:39:59;;;;;;;0.77;0.70;;;21.30;77.00;;;;;;5065134;28;43354;-71
2023/08/04 00:42:28;;;;;;;0.67;0.67;;;21.30;77.00;;;;;;5066839;28;43459;-71
2023/08/04 00:44:56;;;;;;;0.70;0.70;;;21.30;77.00;;;;;;5067237;28;46889;-70
2023/08/04 00:47:25;;;;;;;0.70;0.70;;;21.20;77.70;;;;;;5067577;28;44712;-70
2023/08/04 00:49:55;;;;;;;0.60;0.60;;;21.20;77.60;;;;;;5068612;28;43522;-70
2023/08/04 00:52:23;;;;;;;0.57;0.57;;;21.20;77.40;;;;;;5069355;28;43422;-70
2023/08/04 00:54:52;;;;;;;0.57;0.57;;;21.20;77.30;;;;;;5067285;28;45517;-70
2023/08/04 00:57:19;;;;;;;0.60;0.60;;;21.20;77.40;;;;;;5066622;28;44501;-70
2023/08/04 00:59:49;;;;;;;0.70;0.70;;;21.10;77.90;;;;;;5068024;28;43421;-70
2023/08/04 01:02:17;;;;;;;0.70;0.70;;;21.20;77.80;;;;;;5069191;28;43352;-73
2023/08/04 01:04:48;;;;;;;1.13;0.80;;;21.30;77.50;;;;;;5064561;28;43896;-71
2023/08/04 01:07:20;;;;;;;0.57;0.57;;;21.50;77.10;;;;;;5062929;28;44686;-70
2023/08/04 01:09:52;;;;;;;0.50;0.50;;;21.50;76.50;;;;;;5065903;28;43854;-71
2023/08/04 01:12:23;;;;;;;0.57;0.57;;;21.60;76.30;;;;;;5068378;28;44117;-71
2023/08/04 01:14:53;;;;;;;0.60;0.60;;;21.50;76.30;;;;;;5066803;28;45721;-71
2023/08/04 01:17:28;;;;;;;0.50;0.50;;;21.50;76.40;;;;;;5065017;28;45167;-71
2023/08/04 01:19:56;;;;;;;0.70;0.70;;;21.40;76.90;;;;;;5068114;28;43427;-70
2023/08/04 01:22:26;;;;;;;0.47;0.47;;;21.40;77.20;;;;;;5068411;28;43392;-72
2023/08/04 01:24:54;;;;;;;0.60;0.60;;;21.30;77.10;;;;;;5068224;28;43594;-70
2023/08/04 01:27:25;;;;;;;0.63;0.63;;;21.30;77.00;;;;;;5067920;28;43441;-69
2023/08/04 01:29:53;;;;;;;0.60;0.60;;;21.20;77.00;;;;;;5068232;28;43939;-70
2023/08/04 01:32:21;;;;;;;0.77;0.77;;;21.20;77.60;;;;;;5068755;28;43379;-70
2023/08/04 01:34:49;;;;;;;0.70;0.70;;;21.20;77.70;;;;;;5065678;28;45993;-70
2023/08/04 01:37:17;;;;;;;0.70;0.70;;;21.20;77.70;;;;;;5068124;28;43379;-70
2023/08/04 01:39:46;;;;;;;0.60;0.60;;;21.20;77.40;;;;;;5067612;28;43412;-71
2023/08/04 01:42:14;;;;;;;0.80;0.80;;;21.10;77.30;;;;;;5068275;28;43526;-70
2023/08/04 01:44:42;;;;;;;0.70;0.70;;;21.10;77.90;;;;;;5068011;28;43861;-70
2023/08/04 01:47:10;;;;;;;0.60;0.60;;;21.10;77.90;;;;;;5066594;28;43646;-69
2023/08/04 01:49:38;;;;;;;0.60;0.60;;;21.20;77.60;;;;;;5066330;28;43510;-70
2023/08/04 01:52:07;;;;;;;0.60;0.60;;;21.40;77.30;;;;;;5068154;28;43434;-70
2023/08/04 01:54:35;;;;;;;0.50;0.50;;;21.50;76.70;;;;;;5066085;28;45778;-70
2023/08/04 01:57:05;;;;;;;0.70;0.70;;;21.60;76.40;;;;;;5067791;28;43494;-70
2023/08/04 01:59:34;;;;;;;0.53;0.53;;;21.60;76.30;;;;;;5066962;28;43543;-71
2023/08/04 02:02:02;;;;;;;0.50;0.50;;;21.50;76.30;;;;;;5066034;28;43463;-71
2023/08/04 02:04:30;;;;;;;0.83;0.83;;;21.40;76.40;;;;;;5067611;28;43985;-70
2023/08/04 02:06:58;;;;;;;0.60;0.60;;;21.40;77.10;;;;;;5067646;28;43423;-70
2023/08/04 02:09:27;;;;;;;0.50;0.50;;;21.30;77.10;;;;;;5065992;28;43510;-70
2023/08/04 02:11:57;;;;;;;0.60;0.60;;;21.30;77.10;;;;;;5067956;28;43329;-70
2023/08/04 02:14:27;;;;;;;0.80;0.80;;;21.20;77.10;;;;;;5065877;28;45735;-74
2023/08/04 02:16:56;;;;;;;0.63;0.63;;;21.20;77.50;;;;;;5067473;28;43830;-74
2023/08/04 02:19:24;;;;;;;0.67;0.67;;;21.20;77.60;;;;;;5065451;28;43378;-74
2023/08/04 02:21:52;;;;;;;0.70;0.70;;;21.20;77.60;;;;;;5065986;28;43451;-74
2023/08/04 02:24:20;;;;;;;0.70;0.70;;;21.20;77.50;;;;;;5066866;28;44370;-73
2023/08/04 02:26:48;;;;;;;0.70;0.70;;;21.20;77.50;;;;;;5067592;28;43807;-73
2023/08/04 02:29:16;;;;;;;0.60;0.60;;;21.10;77.60;;;;;;5065897;28;43526;-73
2023/08/04 02:31:45;;;;;;;0.70;0.70;;;21.10;77.90;;;;;;5067237;28;43424;-74
2023/08/04 02:34:15;;;;;;;0.70;0.70;;;21.20;77.80;;;;;;5067191;28;43626;-72
2023/08/04 02:36:44;;;;;;;0.70;0.70;;;21.30;77.30;;;;;;5065526;28;44717;-72
2023/08/04 02:39:11;;;;;;;0.70;0.70;;;21.50;76.90;;;;;;5067271;28;43537;-73
2023/08/04 02:41:39;;;;;;;0.60;0.60;;;21.60;76.40;;;;;;5067525;28;43430;-73
2023/08/04 02:44:07;;;;;;;0.70;0.70;;;21.60;76.20;;;;;;5067195;28;43619;-73
2023/08/04 02:46:35;;;;;;;0.50;0.50;;;21.50;76.20;;;;;;5065550;28;43773;-73
2023/08/04 02:49:04;;;;;;;0.60;0.60;;;21.40;76.30;;;;;;5065819;28;43450;-72
2023/08/04 02:51:32;;;;;;;0.60;0.60;;;21.40;77.00;;;;;;5065667;28;43595;-72
2023/08/04 02:54:00;;;;;;;0.80;0.80;;;21.30;77.10;;;;;;5065470;28;46242;-73
2023/08/04 02:56:28;;;;;;;0.70;0.70;;;21.30;77.10;;;;;;5065458;28;44006;-72
2023/08/04 02:58:56;;;;;;;0.70;0.70;;;21.30;77.10;;;;;;5067086;28;43455;-72
2023/08/04 03:01:24;;;;;;;0.60;0.60;;;21.20;77.10;;;;;;5067655;28;43459;-73
2023/08/04 03:03:52;;;;;;;0.63;0.63;;;21.20;77.80;;;;;;5067052;28;43747;-72
2023/08/04 03:06:22;;;;;;;0.80;0.80;;;21.20;77.70;;;;;;5065576;28;44731;-72
2023/08/04 03:08:50;;;;;;;0.60;0.60;;;21.20;77.60;;;;;;5066240;28;43522;-72
2023/08/04 03:11:18;;;;;;;0.70;0.70;;;21.20;77.50;;;;;;5061151;28;43782;-72
2023/08/04 03:13:46;;;;;;;0.60;0.60;;;21.10;78.20;;;;;;5060285;28;43830;-72
2023/08/04 03:16:14;;;;;;;0.60;0.60;;;21.10;78.10;;;;;;5060345;28;43413;-73
2023/08/04 03:18:42;;;;;;;0.60;0.60;;;21.20;77.90;;;;;;5059961;28;43462;-73
2023/08/04 03:21:10;;;;;;;0.60;0.60;;;21.30;77.50;;;;;;5060339;28;43444;-72
2023/08/04 03:23:39;;;;;;;0.70;0.70;;;21.40;76.90;;;;;;5060020;28;43648;-72
2023/08/04 03:26:07;;;;;;;0.60;0.60;;;21.50;76.50;;;;;;5060537;28;43509;-73
2023/08/04 03:28:35;;;;;;;0.70;0.70;;;21.50;76.20;;;;;;5063415;28;43416;-73
2023/08/04 03:31:03;;;;;;;0.50;0.50;;;21.50;76.30;;;;;;5062848;28;43420;-74
2023/08/04 03:33:31;;;;;;;0.60;0.60;;;21.40;76.40;;;;;;5065368;28;43611;-73
2023/08/04 03:35:59;;;;;;;0.67;0.67;;;21.30;76.90;;;;;;5068629;28;43408;-74
2023/08/04 03:38:27;;;;;;;0.70;0.70;;;21.30;77.20;;;;;;5063408;28;44009;-73
2023/08/04 03:40:57;;;;;;;0.60;0.60;;;21.30;77.20;;;;;;5067284;28;43439;-73
2023/08/04 03:43:25;;;;;;;0.70;0.70;;;21.30;77.10;;;;;;5065409;28;46183;-73
2023/08/04 03:45:52;;;;;;;0.60;0.60;;;21.20;77.10;;;;;;5068402;28;44679;-73
2023/08/04 03:48:21;;;;;;;0.70;0.70;;;21.20;77.90;;;;;;5069869;28;43284;-73
2023/08/04 03:50:48;;;;;;;0.60;0.60;;;21.20;77.80;;;;;;5070126;28;43371;-74
2023/08/04 03:53:16;;;;;;;0.80;0.80;;;21.20;77.60;;;;;;5064350;28;43619;-73
2023/08/04 03:55:44;;;;;;;0.67;0.60;;;21.10;77.40;;;;;;5063432;28;43434;-73
2023/08/04 03:58:14;;;;;;;0.77;0.70;;;21.10;77.50;;;;;;5068194;28;43545;-73
2023/08/04 04:00:42;;;;;;;0.90;0.90;;;21.10;78.10;;;;;;5064018;28;43484;-73
2023/08/04 04:03:10;;;;;;;0.60;0.60;;;21.10;77.90;;;;;;5069323;28;43603;-73
2023/08/04 04:05:38;;;;;;;0.53;0.53;;;21.30;77.60;;;;;;5067787;28;44709;-73
2023/08/04 04:08:06;;;;;;;0.87;0.87;;;21.40;77.00;;;;;;5067668;28;43536;-73
2023/08/04 04:10:34;;;;;;;0.73;0.73;;;21.50;76.40;;;;;;5069876;28;43443;-73
2023/08/04 04:13:02;;;;;;;0.63;0.63;;;21.60;76.30;;;;;;5069009;28;43871;-74
2023/08/04 04:15:32;;;;;;;0.57;0.57;;;21.60;76.20;;;;;;5067826;28;44695;-74
2023/08/04 04:18:00;;;;;;;0.80;0.80;;;21.50;76.30;;;;;;5069393;28;43796;-74
2023/08/04 04:20:28;;;;;;;0.67;0.67;;;21.40;76.60;;;;;;5069308;28;43365;-74
2023/08/04 04:22:56;;;;;;;0.70;0.70;;;21.30;77.10;;;;;;5064201;28;45516;-74
2023/08/04 04:25:24;;;;;;;0.60;0.60;;;21.30;77.10;;;;;;5067609;28;44705;-74
2023/08/04 04:27:52;;;;;;;0.80;0.80;;;21.30;77.00;;;;;;5054989;28;43348;-74
2023/08/04 04:30:20;;;;;;;0.80;0.80;;;21.20;77.00;;;;;;5068257;28;43911;-74
2023/08/04 04:32:49;;;;;;;0.70;0.70;;;21.20;77.40;;;;;;5067247;28;45365;-74
2023/08/04 04:35:17;;;;;;;0.60;0.60;;;21.20;77.80;;;;;;5065123;28;44621;-73
2023/08/04 04:37:45;;;;;;;0.60;0.60;;;21.20;77.70;;;;;;5068990;28;43321;-73
2023/08/04 04:40:15;;;;;;;0.40;0.40;;;21.20;77.50;;;;;;5062659;28;43522;-73
2023/08/04 04:42:43;;;;;;;0.60;0.60;;;21.10;77.50;;;;;;5069274;28;43697;-73
2023/08/04 04:45:11;;;;;;;0.53;0.53;;;21.10;77.70;;;;;;5067576;28;43484;-73
2023/08/04 04:47:39;;;;;;;0.43;0.43;;;21.10;78.00;;;;;;5068991;28;43905;-73
2023/08/04 04:50:10;;;;;;;0.60;0.60;;;21.20;77.90;;;;;;5068086;28;43578;-73
2023/08/04 04:52:38;;;;;;;0.70;0.70;;;21.30;77.60;;;;;;5067289;28;46104;-73
2023/08/04 04:55:08;;;;;;;0.80;0.70;;;21.50;76.90;;;;;;5067400;28;44630;-73
2023/08/04 04:57:40;;;;;;;0.60;0.60;;;21.50;76.50;;;;;;5066540;28;43403;-73
2023/08/04 05:00:09;;;;;;;0.50;0.50;;;21.50;76.30;;;;;;5067894;28;43490;-72
2023/08/04 05:02:37;;;;;;;0.53;0.53;;;21.50;76.30;;;;;;5068145;28;43988;-72
2023/08/04 05:05:06;;;;;;;0.63;0.63;;;21.40;76.40;;;;;;5068552;28;43394;-72
2023/08/04 05:07:35;;;;;;;0.60;0.60;;;21.30;77.10;;;;;;5074087;28;43439;-72
2023/08/04 05:10:06;;;;;;;0.60;0.60;;;21.30;77.20;;;;;;5078123;28;43546;-73
2023/08/04 05:12:34;;;;;;;0.60;0.60;;;21.30;77.10;;;;;;5083847;28;44100;-72
2023/08/04 05:15:02;;;;;;;0.50;0.50;;;21.30;77.10;;;;;;5074238;27;44298;-73
2023/08/04 05:17:30;;;;;;;0.70;0.70;;;21.20;77.10;;;;;;5078267;28;43442;-73
2023/08/04 05:19:58;;;;;;;0.60;0.60;;;21.20;77.80;;;;;;5082630;27;43440;-73
2023/08/04 05:22:27;;;;;;;0.70;0.70;;;21.20;77.80;;;;;;5083995;27;46037;-72
2023/08/04 05:24:56;;;;;;;0.70;0.70;;;21.20;77.60;;;;;;5080597;28;44061;-73
2023/08/04 05:27:36;;;;;;;0.70;0.70;;;21.10;77.40;;;;;;5082386;28;43319;-72
2023/08/04 05:30:06;;;;;;;0.70;0.70;;;21.10;77.50;;;;;;5087043;28;43367;-72
2023/08/04 05:32:37;;;;;;;0.70;0.70;;;21.10;78.10;;;;;;5079980;28;45373;-73
2023/08/04 05:35:09;;;;;;;0.53;0.53;;;21.20;77.80;;;;;;5079901;28;44418;-73
2023/08/04 05:37:37;;;;;;;0.60;0.60;;;21.30;77.40;;;;;;5083156;28;44211;-73
2023/08/04 05:40:08;;;;;;;0.70;0.70;;;21.40;76.80;;;;;;5084957;28;43423;-72
2023/08/04 05:42:36;;;;;;;0.80;0.80;;;21.50;76.40;;;;;;5074947;28;45391;-72
2023/08/04 05:45:09;;;;;;;0.50;0.50;;;21.50;76.20;;;;;;5061139;28;43479;-72
2023/08/04 05:47:43;;;;;;;0.63;0.63;;;21.50;76.30;;;;;;5070169;28;43344;-72
2023/08/04 05:50:11;;;;;;;0.40;0.40;;;21.40;76.40;;;;;;5081909;27;43418;-71
2023/08/04 05:52:39;;;;;;;0.70;0.70;;;21.30;77.10;;;;;;5074121;28;43563;-71
2023/08/04 05:55:09;;;;;;;0.60;0.60;;;21.30;77.20;;;;;;5077782;28;43471;-73
2023/08/04 05:57:37;;;;;;;0.70;0.70;;;21.30;77.20;;;;;;5084889;27;43380;-73
2023/08/04 06:00:07;;;;;;;0.60;0.60;;;21.20;77.10;;;;;;5066841;28;43513;-73
2023/08/04 06:02:35;;;;;;;0.63;0.63;;;21.20;77.20;;;;;;5075701;28;43867;-73
2023/08/04 06:05:03;;;;;;;0.60;0.60;;;21.20;77.80;;;;;;5072467;28;43528;-73
2023/08/04 06:07:38;;;;;;;0.60;0.60;;;21.20;78.50;;;;;;5086731;27;43857;-73
2023/08/04 06:10:12;;;;;;;0.60;0.60;;;21.20;77.60;;;;;;5082984;27;43370;-73
2023/08/04 06:12:40;;;;;;;0.53;0.53;;;21.10;77.40;;;;;;5074732;28;43607;-73
2023/08/04 06:15:09;;;;;;;1.20;0.70;;;21.10;77.50;;;;;;5074825;28;43450;-73
2023/08/04 06:17:37;;;;;;;0.60;0.60;;;21.10;78.00;;;;;;5077683;28;43481;-73
2023/08/04 06:20:07;;;;;;;0.50;0.50;;;21.10;77.80;;;;;;5080646;28;43477;-73
2023/08/04 06:22:37;;;;;;;0.60;0.60;;;21.20;77.40;;;;;;5084425;27;43691;-73
2023/08/04 06:25:08;;;;;;;0.60;0.60;;;21.40;77.00;;;;;;5084913;28;43359;-73
2023/08/04 06:27:38;;;;;;;0.50;0.50;;;21.50;76.50;;;;;;5073236;28;43455;-73
2023/08/04 06:30:07;;;;;;;0.67;0.67;;;21.50;76.20;;;;;;5080647;28;43403;-73
2023/08/04 06:32:35;;;;;;;0.80;0.80;;;21.50;76.30;;;;;;5078500;27;43866;-73
2023/08/04 06:35:04;;;;;;;0.60;0.60;;;21.40;76.40;;;;;;5077753;28;45007;-73
2023/08/04 06:37:32;;;;;;;0.70;0.70;;;21.30;76.90;;;;;;5082534;28;43425;-72
2023/08/04 06:40:00;;;;;;;0.50;0.50;;;21.30;77.10;;;;;;5068656;28;43620;-73
2023/08/04 06:42:28;;;;;;;0.53;0.53;;;21.20;77.00;;;;;;5070350;28;45710;-73
2023/08/04 06:44:57;;;;;;;0.50;0.50;;;21.20;76.90;;;;;;5068194;28;44672;-73
2023/08/04 06:47:25;;;;;;;0.60;0.60;;;21.20;77.10;;;;;;5080543;28;43346;-73
2023/08/04 06:49:53;;;;;;;0.70;0.70;;;21.10;77.60;;;;;;5086334;28;43635;-73
2023/08/04 06:52:21;;;;;;;0.80;0.80;;;21.10;77.60;;;;;;5075937;28;45656;-73
2023/08/04 06:54:50;;;;;;;0.70;0.70;;;21.10;77.50;;;;;;5077184;28;43427;-73
2023/08/04 06:57:19;;;;;;;0.80;0.80;;;21.10;77.30;;;;;;5072752;28;43530;-73
2023/08/04 06:59:46;;;;;;;0.80;0.80;;;21.10;77.40;;;;;;5073326;28;43429;-72
2023/08/04 07:02:16;;;;;;;0.70;0.70;;;21.00;77.80;;;;;;5066721;28;43623;-73
2023/08/04 07:04:44;;;;;;;0.77;0.77;;;21.10;77.70;;;;;;5081093;28;45139;-73
2023/08/04 07:07:12;;;;;;;0.70;0.70;;;21.20;77.30;;;;;;5077827;28;43836;-73
2023/08/04 07:09:40;;;;;;;0.80;0.80;;;21.30;76.80;;;;;;5079560;28;43369;-73
2023/08/04 07:12:09;;;;;;;0.83;0.83;;;21.40;76.30;;;;;;5080343;28;43610;-73
2023/08/04 07:14:37;;;;;;;0.90;0.90;;;21.50;76.10;;;;;;5083508;27;43441;-73
2023/08/04 07:17:05;;;;;;;0.77;0.77;;;21.50;76.10;;;;;;5082937;28;43431;-73
2023/08/04 07:19:33;;;;;;;0.80;0.80;;;21.40;76.90;;;;;;5084399;28;43378;-73
2023/08/04 07:22:01;;;;;;;1.60;0.80;;;21.30;76.40;;;;;;5079628;27;45803;-73
2023/08/04 07:24:29;;;;;;;0.70;0.70;;;21.20;76.90;;;;;;5083240;28;43335;-73
2023/08/04 07:26:59;;;;;;;0.80;0.80;;;21.20;76.90;;;;;;5066058;28;43405;-74
2023/08/04 07:29:33;;;;;;;0.70;0.70;;;21.20;76.90;;;;;;5080387;28;44028;-72
2023/08/04 07:32:01;;;;;;;0.90;0.90;;;21.20;76.90;;;;;;5072430;28;43563;-72
2023/08/04 07:34:29;;;;;;;1.00;0.90;;;21.10;76.90;;;;;;5083779;27;44415;-72
2023/08/04 07:36:58;;;;;;;2.57;1.00;;;21.10;76.40;;;;;;5083743;27;43356;-72
2023/08/04 07:39:26;;;;;;;1.27;1.00;;;21.20;76.50;;;;;;5086105;28;43953;-73
2023/08/04 07:41:54;;;;;;;3.77;1.10;;;21.30;76.40;;;;;;5081438;28;43642;-73
2023/08/04 07:44:22;;;;;;;0.80;0.80;;;21.30;76.20;;;;;;5080723;27;43356;-73
2023/08/04 07:46:50;;;;;;;1.10;0.80;;;21.30;76.20;;;;;;5085236;27;43864;-72
2023/08/04 07:49:18;;;;;;;2.97;1.10;;;21.30;76.40;;;;;;5083694;27;43503;-72
2023/08/04 07:51:46;;;;;;;1.80;1.20;;;21.20;76.40;;;;;;5060052;28;44020;-72
2023/08/04 07:54:16;;;;;;;0.80;0.80;;;21.30;76.50;;;;;;5079697;27;43449;-72
2023/08/04 07:56:44;;;;;;;0.90;0.90;;;21.20;76.50;;;;;;5079260;27;43512;-72
2023/08/04 07:59:12;;;;;;;0.97;0.97;;;21.20;76.60;;;;;;5080417;27;43395;-72
2023/08/04 08:01:40;;;;;;;1.23;1.10;;;21.10;77.00;;;;;;5080874;27;45662;-73
2023/08/04 08:04:08;;;;;;;1.00;0.93;;;21.20;77.20;;;;;;5069618;28;43493;-69
2023/08/04 08:06:36;;;;;;;0.90;0.90;;;21.20;77.10;;;;;;5076404;28;43425;-70
2023/08/04 08:09:04;;;;;;;0.90;0.90;;;21.10;76.90;;;;;;5078300;28;43466;-70
2023/08/04 08:11:34;;;;;;;1.00;1.00;;;21.10;76.90;;;;;;5080972;28;43858;-70
2023/08/04 08:14:02;;;;;;;1.60;1.13;;;21.00;77.50;;;;;;5081963;27;43377;-70
2023/08/04 08:16:30;;;;;;;1.00;1.00;;;21.10;77.20;;;;;;5082038;27;43436;-70
2023/08/04 08:18:58;;;;;;;1.10;1.10;;;21.20;76.90;;;;;;5077548;27;43506;-70
2023/08/04 08:21:26;;;;;;;2.37;1.10;;;21.30;76.40;;;;;;5072634;28;45294;-70
2023/08/04 08:23:54;;;;;;;1.00;0.90;;;21.40;76.00;;;;;;5074421;28;43395;-69
2023/08/04 08:26:22;;;;;;;1.20;1.20;;;21.50;75.90;;;;;;5080608;28;43936;-70
2023/08/04 08:28:51;;;;;;;1.47;1.07;;;21.40;75.80;;;;;;5070740;28;43772;-69
2023/08/04 08:31:19;;;;;;;1.30;1.10;;;21.40;76.70;;;;;;5087453;27;43722;-70
2023/08/04 08:33:47;;;;;;;2.77;1.60;;;21.30;76.20;;;;;;5072195;28;44850;-71
2023/08/04 08:36:16;;;;;;;3.07;1.80;;;21.20;76.70;;;;;;5078750;28;43399;-70
2023/08/04 08:38:44;;;;;;;2.57;2.00;;;21.20;76.80;;;;;;5084788;27;43344;-70
2023/08/04 08:41:13;;;;;;;2.53;2.00;;;21.20;76.70;;;;;;5081666;28;45702;-70
2023/08/04 08:43:41;;;;;;;5.07;2.97;;;21.10;76.60;;;;;;5077453;28;43360;-70
2023/08/04 08:46:10;;;;;;;6.93;2.60;;;21.10;77.00;;;;;;5076062;28;44041;-70
2023/08/04 08:48:39;;;;;;;8.23;3.40;;;21.10;77.10;;;;;;5074410;28;43545;-70
2023/08/04 08:51:09;;;;;;;4.20;2.77;;;21.20;77.00;;;;;;5082341;28;43601;-70
2023/08/04 08:53:37;;;;;;;5.73;2.80;;;21.20;76.60;;;;;;5082961;28;43392;-69
2023/08/04 08:56:05;;;;;;;2.97;2.70;;;21.30;76.50;;;;;;5076318;28;43497;-70
2023/08/04 08:58:33;;;;;;;5.67;3.07;;;21.30;76.40;;;;;;5079371;28;43473;-70
2023/08/04 09:01:01;;;;;;;3.80;2.90;;;21.30;76.80;;;;;;5085577;28;43607;-70
2023/08/04 09:03:31;;;;;;;4.33;2.90;;;21.30;76.70;;;;;;5068074;28;43995;-70
2023/08/04 09:05:59;;;;;;;3.67;2.77;;;21.30;76.60;;;;;;5078614;28;43427;-70
2023/08/04 09:08:27;;;;;;;2.47;2.20;;;21.20;76.50;;;;;;5080940;28;43475;-70
2023/08/04 09:10:55;;;;;;;5.13;2.93;;;21.10;76.70;;;;;;5084307;27;43598;-69
2023/08/04 09:13:23;;;;;;;3.83;3.00;;;21.10;77.20;;;;;;5082719;27;43367;-70
2023/08/04 09:15:52;;;;;;;3.77;2.50;;;21.10;77.10;;;;;;5078661;28;43370;-70
2023/08/04 09:18:27;;;;;;;4.87;2.90;;;21.10;77.00;;;;;;5086464;28;43308;-71
2023/08/04 09:21:00;;;;;;;4.63;2.73;;;21.10;77.00;;;;;;5078686;27;43675;-69
2023/08/04 09:23:29;;;;;;;4.73;2.53;;;21.00;77.40;;;;;;5080618;27;45568;-69
2023/08/04 09:25:57;;;;;;;4.00;2.60;;;21.10;77.50;;;;;;5078058;27;43345;-70
2023/08/04 09:28:27;;;;;;;3.10;2.60;;;21.00;77.30;;;;;;5083922;28;43368;-69
2023/08/04 09:31:04;;;;;;;3.47;2.70;;;21.10;77.20;;;;;;5079533;27;43690;-69
2023/08/04 09:33:32;;;;;;;3.53;2.80;;;21.00;77.20;;;;;;5077589;28;43622;-69
2023/08/04 09:36:06;;;;;;;4.47;2.70;;;21.00;77.70;;;;;;5077724;28;43390;-69
2023/08/04 09:38:34;;;;;;;2.70;2.50;;;21.00;78.30;;;;;;5077130;27;43561;-70
2023/08/04 09:41:03;;;;;;;2.90;2.67;;;21.10;77.20;;;;;;5081474;28;43882;-72
2023/08/04 09:43:31;;;;;;;2.60;2.40;;;21.30;76.80;;;;;;5077284;28;44558;-71
2023/08/04 09:46:00;;;;;;;2.80;2.60;;;21.40;76.10;;;;;;5076999;28;43367;-70
2023/08/04 09:48:28;;;;;;;3.13;2.50;;;21.50;75.90;;;;;;5081757;27;43533;-70
2023/08/04 09:51:11;;;;;;;2.57;2.37;;;21.50;75.90;;;;;;5079075;27;45745;-69
2023/08/04 09:53:43;;;;;;;2.67;2.47;;;21.40;75.80;;;;;;5084512;28;44704;-70
2023/08/04 09:56:12;;;;;;;2.40;2.30;;;21.30;76.00;;;;;;5078110;27;43908;-69
2023/08/04 09:58:40;;;;;;;4.50;2.50;;;21.30;76.60;;;;;;5067137;28;43442;-72
2023/08/04 10:01:09;;;;;;;2.50;2.30;;;21.20;76.60;;;;;;5078340;28;43991;-70
2023/08/04 10:03:38;;;;;;;2.50;2.30;;;21.20;76.50;;;;;;5076502;27;43351;-71
2023/08/04 10:06:06;;;;;;;2.90;2.70;;;21.20;76.60;;;;;;5081919;28;43417;-70
2023/08/04 10:08:39;;;;;;;6.30;3.13;;;21.10;76.70;;;;;;5082992;28;43853;-70
2023/08/04 10:11:08;;;;;;;3.03;2.73;;;21.10;77.30;;;;;;5077826;28;45693;-70
2023/08/04 10:13:37;;;;;;;3.47;2.43;;;21.10;77.20;;;;;;5069935;27;43441;-70
2023/08/04 10:16:06;;;;;;;2.17;2.07;;;21.10;77.00;;;;;;5082595;27;44101;-70
2023/08/04 10:18:49;;;;;;;2.43;2.33;;;21.10;76.90;;;;;;5080852;28;44098;-71
2023/08/04 10:21:19;;;;;;;2.93;2.60;;;21.10;77.10;;;;;;5082811;27;43881;-71
2023/08/04 10:23:48;;;;;;;2.90;2.60;;;21.00;77.50;;;;;;5081733;27;43486;-71
2023/08/04 10:26:16;;;;;;;5.10;2.50;;;21.10;77.40;;;;;;5074932;28;43349;-73
2023/08/04 10:29:01;;;;;;;2.50;2.30;;;21.20;76.90;;;;;;5081031;27;43422;-73
2023/08/04 10:31:46;;;;;;;2.63;2.43;;;21.40;76.40;;;;;;5080495;28;43615;-73
2023/08/04 10:34:16;;;;;;;2.60;2.50;;;21.50;76.00;;;;;;5072439;28;44419;-73
2023/08/04 10:37:04;;;;;;;2.37;2.23;;;21.50;75.80;;;;;;5086175;28;43446;-73
2023/08/04 10:39:35;;;;;;;2.17;2.07;;;21.40;75.80;;;;;;5079559;28;43347;-73
2023/08/04 10:42:07;;;;;;;2.13;1.83;;;21.30;75.90;;;;;;5065494;28;45746;-73
2023/08/04 10:44:48;;;;;;;2.50;2.40;;;21.20;76.60;;;;;;5082555;27;43351;-73
2023/08/04 10:47:17;;;;;;;2.50;2.30;;;21.30;76.60;;;;;;5082914;27;43432;-73
2023/08/04 10:49:46;;;;;;;2.20;2.10;;;21.20;76.50;;;;;;5069345;28;43431;-73
2023/08/04 10:52:14;;;;;;;2.30;2.20;;;21.20;76.60;;;;;;5069102;28;46309;-73
2023/08/04 10:54:43;;;;;;;2.40;2.30;;;21.10;76.90;;;;;;5085513;28;43350;-73
2023/08/04 10:57:18;;;;;;;2.57;2.20;;;21.10;77.20;;;;;;5081141;27;43562;-73
2023/08/04 10:59:46;;;;;;;2.40;2.20;;;21.20;77.10;;;;;;5082360;28;43441;-73
2023/08/04 11:02:17;;;;;;;2.57;2.47;;;21.30;76.80;;;;;;5066724;28;45373;-72
2023/08/04 11:04:47;;;;;;;2.77;2.43;;;21.30;76.50;;;;;;5068464;28;44008;-72
2023/08/04 11:07:16;;;;;;;2.47;2.33;;;21.30;76.50;;;;;;5074642;28;43412;-72
2023/08/04 11:09:46;;;;;;;2.40;2.23;;;21.20;76.80;;;;;;5077519;27;43281;-72
2023/08/04 11:12:15;;;;;;;3.27;2.27;;;21.30;77.50;;;;;;5079822;27;43717;-72
2023/08/04 11:14:43;;;;;;;2.20;2.10;;;21.20;76.60;;;;;;5081363;27;43381;-72
2023/08/04 11:17:14;;;;;;;2.10;2.00;;;21.20;76.50;;;;;;5084266;28;43281;-72
2023/08/04 11:19:43;;;;;;;2.77;2.10;;;21.20;76.70;;;;;;5086224;27;44000;-72
2023/08/04 11:22:13;;;;;;;2.37;2.17;;;21.10;77.20;;;;;;5072921;28;46128;-72
2023/08/04 11:24:41;;;;;;;2.20;2.10;;;21.10;77.10;;;;;;5072517;27;43416;-72
2023/08/04 11:27:11;;;;;;;2.17;2.07;;;21.10;77.00;;;;;;5069756;28;43493;-73
2023/08/04 11:29:39;;;;;;;2.10;2.00;;;21.10;77.00;;;;;;5074028;28;44029;-72
2023/08/04 11:32:10;;;;;;;2.50;2.40;;;21.00;77.10;;;;;;5073836;28;43853;-72
2023/08/04 11:34:40;;;;;;;2.30;2.10;;;21.00;77.50;;;;;;5074245;27;43467;-72
2023/08/04 11:37:08;;;;;;;2.20;2.10;;;21.10;77.50;;;;;;5076961;28;43486;-72
2023/08/04 11:39:37;;;;;;;2.07;1.97;;;21.10;77.20;;;;;;5083135;28;43398;-72
2023/08/04 11:42:11;;;;;;;2.13;2.03;;;21.00;77.10;;;;;;5080045;27;43606;-73
2023/08/04 11:44:40;;;;;;;2.47;2.30;;;21.00;77.70;;;;;;5081097;28;43417;-72
2023/08/04 11:47:08;;;;;;;2.43;2.23;;;21.00;77.70;;;;;;5087772;28;43370;-73
2023/08/04 11:49:37;;;;;;;2.00;2.00;;;21.10;77.40;;;;;;5081826;28;43508;-73
2023/08/04 11:52:08;;;;;;;2.53;2.43;;;21.30;77.00;;;;;;5084017;28;43566;-73
2023/08/04 11:54:36;;;;;;;2.20;2.10;;;21.40;76.40;;;;;;5077391;27;44724;-72
2023/08/04 11:57:05;;;;;;;2.17;2.07;;;21.50;76.10;;;;;;5072924;28;43485;-73
2023/08/04 11:59:34;;;;;;;2.43;2.33;;;21.50;75.90;;;;;;5086330;27;43447;-73
2023/08/04 12:02:06;;;;;;;2.23;2.13;;;21.50;75.90;;;;;;5078793;27;44373;-73
2023/08/04 12:04:35;;;;;;;4.23;2.80;;;21.40;76.00;;;;;;5066939;28;43461;-73
2023/08/04 12:07:05;;;;;;;2.43;2.33;;;21.30;76.70;;;;;;5086495;28;43436;-73
2023/08/04 12:09:33;;;;;;;2.53;2.43;;;21.30;76.70;;;;;;5083636;27;43458;-73
2023/08/04 12:12:02;;;;;;;2.30;2.20;;;21.30;76.60;;;;;;5086882;28;45361;-73
2023/08/04 12:14:30;;;;;;;2.30;2.20;;;21.20;76.60;;;;;;5085153;28;43967;-73
2023/08/04 12:17:02;;;;;;;2.57;2.40;;;21.20;76.90;;;;;;5083906;28;43435;-72
2023/08/04 12:19:31;;;;;;;3.17;2.80;;;21.10;77.30;;;;;;5076689;28;43480;-73
2023/08/04 12:22:03;;;;;;;2.70;2.50;;;21.10;77.40;;;;;;5086789;28;43637;-72
2023/08/04 12:24:31;;;;;;;2.60;2.50;;;21.10;77.00;;;;;;5071412;28;44623;-71
2023/08/04 12:27:00;;;;;;;2.83;2.50;;;21.10;77.10;;;;;;5081781;28;43394;-72
2023/08/04 12:29:28;;;;;;;3.47;2.83;;;21.10;77.50;;;;;;5084076;27;43954;-73
2023/08/04 12:31:56;;;;;;;2.87;2.70;;;21.10;77.80;;;;;;5087050;27;44033;-73
2023/08/04 12:34:25;;;;;;;2.40;2.30;;;21.20;77.50;;;;;;5066473;28;43372;-72
2023/08/04 12:36:53;;;;;;;3.10;2.80;;;21.20;77.00;;;;;;5076194;28;43888;-73
2023/08/04 12:39:22;;;;;;;2.70;2.50;;;21.30;76.80;;;;;;5076556;28;43429;-73
2023/08/04 12:41:50;;;;;;;2.97;2.77;;;21.30;76.60;;;;;;5083297;28;46026;-73
2023/08/04 12:44:19;;;;;;;2.47;2.37;;;21.30;77.10;;;;;;5081322;27;44683;-71
2023/08/04 12:46:47;;;;;;;2.70;2.60;;;21.30;77.00;;;;;;5068196;28;43438;-73
2023/08/04 12:49:15;;;;;;;2.77;2.57;;;21.30;76.90;;;;;;5079888;27;43430;-69
2023/08/04 12:51:45;;;;;;;2.50;2.40;;;21.30;76.80;;;;;;5086259;27;43819;-70
2023/08/04 12:54:14;;;;;;;2.50;2.40;;;21.20;76.90;;;;;;5084613;27;43553;-71
2023/08/04 12:56:42;;;;;;;3.50;3.00;;;21.20;77.50;;;;;;5078103;28;43339;-71